createdAt,value
2018-06-11T00:00:21.346Z,97625.69
2018-06-11T00:02:49.995Z,97618.54
2018-06-11T00:05:18.705Z,97618.09
2018-06-11T00:07:47.522Z,97613.77
2018-06-11T00:10:16.244Z,97616.41
2018-06-11T00:12:44.959Z,97614.45
2018-06-11T00:15:13.605Z,97616.83
2018-06-11T00:17:42.283Z,97620.48
2018-06-11T00:20:11.005Z,97621.52
2018-06-11T00:22:39.800Z,97620.64
2018-06-11T00:25:09.166Z,97610.76
2018-06-11T00:27:39.340Z,97602.81
2018-06-11T00:30:08.072Z,97604.09
2018-06-11T00:32:36.831Z,97602.25
2018-06-11T00:35:05.761Z,97602.48
2018-06-11T00:37:34.266Z,97604.53
2018-06-11T00:40:03.276Z,97600.67
2018-06-11T00:42:32.537Z,97590.00
2018-06-11T00:45:01.494Z,97592.44
2018-06-11T00:47:30.979Z,97577.78
2018-06-11T00:49:59.896Z,97579.36
2018-06-11T00:52:28.514Z,97568.44
2018-06-11T00:54:57.871Z,97567.52
2018-06-11T00:57:26.586Z,97551.36
2018-06-11T00:59:56.125Z,97562.27
2018-06-11T01:02:25.040Z,97567.28
2018-06-11T01:04:54.380Z,97582.33
2018-06-11T01:07:23.087Z,97585.73
2018-06-11T01:09:52.176Z,97579.36
2018-06-11T01:12:22.167Z,97575.27
2018-06-11T01:14:53.801Z,97573.25
2018-06-11T01:17:23.255Z,97558.93
2018-06-11T01:19:53.047Z,97562.58
2018-06-11T01:22:21.792Z,97550.09
2018-06-11T01:24:50.488Z,97545.02
2018-06-11T01:27:19.420Z,97544.22
2018-06-11T01:29:48.890Z,97557.17
2018-06-11T01:32:18.041Z,97551.52
2018-06-11T01:34:49.091Z,97549.00
2018-06-11T01:37:17.802Z,97546.86
2018-06-11T01:39:46.611Z,97561.30
2018-06-11T01:42:15.280Z,97557.00
2018-06-11T01:44:44.148Z,97555.75
2018-06-11T01:47:13.202Z,97554.03
2018-06-11T01:49:42.720Z,97541.52
2018-06-11T01:52:11.447Z,97540.40
2018-06-11T01:54:41.014Z,97538.59
2018-06-11T01:57:12.484Z,97542.88
2018-06-11T01:59:41.453Z,97541.08
2018-06-11T02:02:10.472Z,97544.27
2018-06-11T02:04:39.072Z,97538.17
2018-06-11T02:07:08.136Z,97528.50
2018-06-11T02:09:36.924Z,97531.34
2018-06-11T02:12:06.586Z,97534.07
2018-06-11T02:14:35.396Z,97543.17
2018-06-11T02:17:04.898Z,97537.72
2018-06-11T02:19:33.788Z,97537.95
2018-06-11T02:22:02.549Z,97539.41
2018-06-11T02:24:31.236Z,97534.52
2018-06-11T02:26:59.907Z,97538.16
2018-06-11T02:29:28.884Z,97538.31
2018-06-11T02:31:57.569Z,97528.86
2018-06-11T02:34:26.292Z,97530.31
2018-06-11T02:36:55.543Z,97533.93
2018-06-11T02:39:24.366Z,97535.86
2018-06-11T02:41:53.036Z,97528.78
2018-06-11T02:44:21.876Z,97525.81
2018-06-11T02:46:50.751Z,97528.30
2018-06-11T02:49:19.637Z,97526.14
2018-06-11T02:51:48.222Z,97522.61
2018-06-11T02:54:17.308Z,97530.31
2018-06-11T02:56:46.713Z,97525.55
2018-06-11T02:59:15.597Z,97528.59
2018-06-11T03:01:45.226Z,97534.29
2018-06-11T03:04:13.977Z,97540.75
2018-06-11T03:06:42.714Z,97540.84
2018-06-11T03:09:13.618Z,97537.66
2018-06-11T03:11:42.263Z,97530.92
2018-06-11T03:14:10.951Z,97538.39
2018-06-11T03:16:39.513Z,97536.55
2018-06-11T03:19:08.357Z,97530.40
2018-06-11T03:21:37.063Z,97526.07
2018-06-11T03:24:06.142Z,97525.50
2018-06-11T03:26:35.579Z,97522.41
2018-06-11T03:29:04.597Z,97515.47
2018-06-11T03:31:33.498Z,97517.95
2018-06-11T03:34:07.188Z,97516.22
2018-06-11T03:36:37.131Z,97515.06
2018-06-11T03:39:08.387Z,97524.41
2018-06-11T03:41:37.918Z,97525.66
2018-06-11T03:44:06.747Z,97523.73
2018-06-11T03:46:35.942Z,97529.47
2018-06-11T03:49:04.892Z,97526.66
2018-06-11T03:51:33.515Z,97528.72
2018-06-11T03:54:02.342Z,97532.04
2018-06-11T03:56:31.711Z,97534.84
2018-06-11T03:59:00.491Z,97535.29
2018-06-11T04:01:29.316Z,97536.45
2018-06-11T04:03:58.194Z,97540.30
2018-06-11T04:06:27.072Z,97535.59
2018-06-11T04:08:56.333Z,97534.65
2018-06-11T04:11:25.147Z,97534.98
2018-06-11T04:13:54.123Z,97533.92
2018-06-11T04:16:23.708Z,97537.38
2018-06-11T04:18:52.958Z,97528.56
2018-06-11T04:21:21.722Z,97528.28
2018-06-11T04:23:50.438Z,97525.09
2018-06-11T04:26:19.338Z,97520.81
2018-06-11T04:28:48.265Z,97522.69
2018-06-11T04:31:16.978Z,97518.22
2018-06-11T04:33:45.978Z,97513.66
2018-06-11T04:36:15.608Z,97516.34
2018-06-11T04:38:44.586Z,97509.17
2018-06-11T04:41:13.269Z,97502.14
2018-06-11T04:43:42.224Z,97507.78
2018-06-11T04:46:11.644Z,97507.41
2018-06-11T04:48:40.276Z,97505.17
2018-06-11T04:51:09.131Z,97504.47
2018-06-11T04:53:37.963Z,97500.66
2018-06-11T04:56:06.861Z,97492.23
2018-06-11T04:58:35.529Z,97497.23
2018-06-11T05:01:04.976Z,97489.39
2018-06-11T05:03:33.796Z,97492.66
2018-06-11T05:06:02.589Z,97491.13
2018-06-11T05:08:31.471Z,97496.33
2018-06-11T05:11:00.183Z,97489.55
2018-06-11T05:13:28.896Z,97495.66
2018-06-11T05:15:57.658Z,97492.50
2018-06-11T05:18:26.379Z,97491.47
2018-06-11T05:20:55.446Z,97489.95
2018-06-11T05:23:24.336Z,97485.19
2018-06-11T05:25:53.133Z,97480.98
2018-06-11T05:28:22.023Z,97485.72
2018-06-11T05:30:51.637Z,97481.12
2018-06-11T05:33:20.758Z,97485.29
2018-06-11T05:35:49.736Z,97481.94
2018-06-11T05:38:18.544Z,97487.01
2018-06-11T05:40:47.672Z,97487.36
2018-06-11T05:43:16.612Z,97488.27
2018-06-11T05:45:46.152Z,97483.59
2018-06-11T05:48:15.147Z,97485.52
2018-06-11T05:50:45.014Z,97490.34
2018-06-11T05:53:14.613Z,97485.44
2018-06-11T05:55:43.784Z,97494.20
2018-06-11T05:58:12.914Z,97492.67
2018-06-11T06:00:42.491Z,97503.17
2018-06-11T06:03:11.434Z,97503.63
2018-06-11T06:05:40.707Z,97510.61
2018-06-11T06:08:09.566Z,97511.84
2018-06-11T06:10:40.053Z,97520.70
2018-06-11T06:13:09.503Z,97515.75
2018-06-11T06:15:38.943Z,97525.67
2018-06-11T06:18:07.819Z,97526.66
2018-06-11T06:20:37.044Z,97517.38
2018-06-11T06:23:06.270Z,97517.66
2018-06-11T06:25:35.083Z,97517.45
2018-06-11T06:28:03.808Z,97519.72
2018-06-11T06:30:32.754Z,97530.05
2018-06-11T06:33:02.248Z,97530.55
2018-06-11T06:35:31.001Z,97532.80
2018-06-11T06:38:00.663Z,97528.98
2018-06-11T06:40:29.639Z,97529.11
2018-06-11T06:42:58.197Z,97538.36
2018-06-11T06:45:26.779Z,97529.81
2018-06-11T06:47:55.520Z,97531.45
2018-06-11T06:50:25.064Z,97526.80
2018-06-11T06:52:53.929Z,97528.40
2018-06-11T06:55:23.018Z,97524.16
2018-06-11T06:57:52.395Z,97529.77
2018-06-11T07:00:21.538Z,97523.84
2018-06-11T07:02:51.039Z,97532.27
2018-06-11T07:05:19.988Z,97528.56
2018-06-11T07:07:48.660Z,97526.92
2018-06-11T07:10:17.543Z,97518.16
2018-06-11T07:12:46.419Z,97514.08
2018-06-11T07:15:15.612Z,97513.67
2018-06-11T07:17:45.113Z,97511.55
2018-06-11T07:20:13.860Z,97515.11
2018-06-11T07:22:42.679Z,97508.28
2018-06-11T07:25:12.129Z,97518.48
2018-06-11T07:27:41.097Z,97517.23
2018-06-11T07:30:11.295Z,97507.98
2018-06-11T07:32:40.465Z,97511.61
2018-06-11T07:35:09.693Z,97511.00
2018-06-11T07:37:38.568Z,97511.20
2018-06-11T07:40:07.248Z,97508.80
2018-06-11T07:42:36.015Z,97511.75
2018-06-11T07:45:05.058Z,97508.59
2018-06-11T07:47:33.861Z,97507.02
2018-06-11T07:50:03.364Z,97502.27
2018-06-11T07:52:32.239Z,97502.28
2018-06-11T07:55:01.559Z,97501.31
2018-06-11T07:57:30.939Z,97504.31
2018-06-11T08:00:00.256Z,97500.34
2018-06-11T08:02:29.050Z,97504.73
2018-06-11T08:04:58.729Z,97495.11
2018-06-11T08:07:27.404Z,97482.79
2018-06-11T08:09:56.100Z,97480.51
2018-06-11T08:12:25.023Z,97480.84
2018-06-11T08:14:54.215Z,97476.63
2018-06-11T08:17:23.730Z,97472.89
2018-06-11T08:19:52.755Z,97480.81
2018-06-11T08:22:21.970Z,97474.39
2018-06-11T08:24:50.829Z,97476.17
2018-06-11T08:27:19.540Z,97475.64
2018-06-11T08:29:48.359Z,97471.80
2018-06-11T08:32:17.283Z,97465.42
2018-06-11T08:34:46.104Z,97464.20
2018-06-11T08:37:15.234Z,97474.91
2018-06-11T08:39:44.720Z,97474.25
2018-06-11T08:42:13.917Z,97472.56
2018-06-11T08:44:42.800Z,97471.88
2018-06-11T08:47:11.653Z,97473.53
2018-06-11T08:49:40.544Z,97487.20
2018-06-11T08:52:09.685Z,97487.84
2018-06-11T08:54:39.196Z,97485.89
2018-06-11T08:57:07.847Z,97484.52
2018-06-11T08:59:37.543Z,97489.23
2018-06-11T09:02:06.453Z,97487.70
2018-06-11T09:04:35.080Z,97487.38
2018-06-11T09:07:04.187Z,97498.27
2018-06-11T09:09:33.425Z,97497.72
2018-06-11T09:12:02.903Z,97484.61
2018-06-11T09:14:31.729Z,97493.56
2018-06-11T09:17:01.228Z,97488.86
2018-06-11T09:19:29.846Z,97486.89
2018-06-11T09:21:58.693Z,97485.64
2018-06-11T09:24:27.358Z,97486.13
2018-06-11T09:26:56.050Z,97491.45
2018-06-11T09:29:25.036Z,97480.70
2018-06-11T09:31:54.444Z,97484.63
2018-06-11T09:34:23.465Z,97484.00
2018-06-11T09:36:52.290Z,97477.72
2018-06-11T09:39:21.060Z,97483.33
2018-06-11T09:41:50.318Z,97484.39
2018-06-11T09:44:19.171Z,97476.64
2018-06-11T09:46:48.644Z,97485.39
2018-06-11T09:49:18.078Z,97495.50
2018-06-11T09:51:46.806Z,97486.39
2018-06-11T09:54:16.357Z,97486.91
2018-06-11T09:56:45.251Z,97482.26
2018-06-11T09:59:13.909Z,97479.82
2018-06-11T10:01:42.961Z,97481.31
2018-06-11T10:04:12.423Z,97478.55
2018-06-11T10:06:41.184Z,97481.50
2018-06-11T10:09:10.450Z,97478.74
2018-06-11T10:11:39.280Z,97479.52
2018-06-11T10:14:07.948Z,97477.67
2018-06-11T10:16:36.738Z,97477.87
2018-06-11T10:19:05.691Z,97472.88
2018-06-11T10:21:34.949Z,97468.51
2018-06-11T10:24:04.086Z,97466.05
2018-06-11T10:26:33.011Z,97462.29
2018-06-11T10:29:01.710Z,97462.57
2018-06-11T10:31:32.919Z,97448.77
2018-06-11T10:34:01.855Z,97450.07
2018-06-11T10:36:31.434Z,97449.07
2018-06-11T10:39:00.104Z,97430.75
2018-06-11T10:41:29.723Z,97422.41
2018-06-11T10:43:58.823Z,97425.66
2018-06-11T10:46:28.415Z,97419.74
2018-06-11T10:48:57.480Z,97419.59
2018-06-11T10:51:26.558Z,97418.17
2018-06-11T10:53:55.310Z,97417.32
2018-06-11T10:56:24.080Z,97415.20
2018-06-11T10:58:52.878Z,97407.74
2018-06-11T11:01:21.511Z,97413.47
2018-06-11T11:03:50.353Z,97401.30
2018-06-11T11:06:19.977Z,97392.19
2018-06-11T11:08:49.350Z,97391.48
2018-06-11T11:11:18.008Z,97393.44
2018-06-11T11:13:46.717Z,97391.97
2018-06-11T11:16:15.798Z,97390.88
2018-06-11T11:18:44.629Z,97380.37
2018-06-11T11:21:13.400Z,97379.80
2018-06-11T11:23:42.439Z,97384.41
2018-06-11T11:26:11.395Z,97380.66
2018-06-11T11:28:40.914Z,97381.46
2018-06-11T11:31:09.620Z,97383.95
2018-06-11T11:33:38.450Z,97384.38
2018-06-11T11:36:07.750Z,97384.38
2018-06-11T11:38:36.596Z,97382.81
2018-06-11T11:41:05.332Z,97375.66
2018-06-11T11:43:35.041Z,97365.47
2018-06-11T11:46:04.647Z,97362.97
2018-06-11T11:48:33.767Z,97360.53
2018-06-11T11:51:02.559Z,97357.63
2018-06-11T11:53:31.439Z,97354.16
2018-06-11T11:56:00.159Z,97349.57
2018-06-11T11:58:28.947Z,97347.89
2018-06-11T12:00:57.920Z,97342.29
2018-06-11T12:03:26.800Z,97350.38
2018-06-11T12:05:56.400Z,97339.27
2018-06-11T12:08:25.505Z,97339.59
2018-06-11T12:10:54.485Z,97336.54
2018-06-11T12:13:23.295Z,97331.67
2018-06-11T12:15:52.187Z,97333.22
2018-06-11T12:18:21.122Z,97334.36
2018-06-11T12:20:49.787Z,97330.62
2018-06-11T12:23:18.786Z,97327.75
2018-06-11T12:25:47.409Z,97323.06
2018-06-11T12:28:16.368Z,97318.70
2018-06-11T12:30:45.096Z,97310.31
2018-06-11T12:33:13.919Z,97315.64
2018-06-11T12:35:42.752Z,97313.27
2018-06-11T12:38:11.542Z,97308.75
2018-06-11T12:40:41.704Z,97309.34
2018-06-11T12:43:10.780Z,97309.91
2018-06-11T12:45:39.620Z,97296.98
2018-06-11T12:48:08.440Z,97296.69
2018-06-11T12:50:37.105Z,97292.16
2018-06-11T12:53:06.711Z,97277.63
2018-06-11T12:55:35.669Z,97274.06
2018-06-11T12:58:04.582Z,97268.97
2018-06-11T13:00:33.435Z,97258.84
2018-06-11T13:03:02.076Z,97246.45
2018-06-11T13:05:30.837Z,97233.02
2018-06-11T13:08:00.332Z,97235.66
2018-06-11T13:10:29.325Z,97240.33
2018-06-11T13:12:58.236Z,97233.36
2018-06-11T13:15:27.896Z,97227.77
2018-06-11T13:17:56.816Z,97224.39
2018-06-11T13:20:25.571Z,97226.11
2018-06-11T13:22:54.431Z,97212.16
2018-06-11T13:25:23.592Z,97210.00
2018-06-11T13:27:52.895Z,97210.55
2018-06-11T13:30:22.060Z,97212.90
2018-06-11T13:32:51.011Z,97217.24
2018-06-11T13:35:19.716Z,97216.47
2018-06-11T13:37:48.633Z,97213.19
2018-06-11T13:40:17.681Z,97209.91
2018-06-11T13:42:46.596Z,97201.34
2018-06-11T13:45:15.525Z,97209.42
2018-06-11T13:47:45.018Z,97211.75
2018-06-11T13:50:13.937Z,97207.88
2018-06-11T13:52:42.852Z,97199.17
2018-06-11T13:55:12.446Z,97187.35
2018-06-11T13:57:41.532Z,97184.24
2018-06-11T14:00:11.102Z,97174.14
2018-06-11T14:02:40.162Z,97173.22
2018-06-11T14:05:09.328Z,97171.03
2018-06-11T14:07:38.246Z,97171.30
2018-06-11T14:10:07.098Z,97168.20
2018-06-11T14:12:35.981Z,97169.28
2018-06-11T14:15:05.206Z,97172.09
2018-06-11T14:17:34.795Z,97162.28
2018-06-11T14:20:03.788Z,97157.64
2018-06-11T14:22:32.472Z,97149.52
2018-06-11T14:25:02.001Z,97148.80
2018-06-11T14:27:31.064Z,97147.95
2018-06-11T14:29:59.767Z,97152.25
2018-06-11T14:32:28.627Z,97148.33
2018-06-11T14:34:57.547Z,97145.06
2018-06-11T14:37:27.016Z,97143.19
2018-06-11T14:39:55.865Z,97152.40
2018-06-11T14:42:24.881Z,97149.73
2018-06-11T14:44:53.928Z,97159.73
2018-06-11T14:47:23.304Z,97158.41
2018-06-11T14:49:52.342Z,97153.45
2018-06-11T14:52:21.519Z,97148.05
2018-06-11T14:54:50.746Z,97142.47
2018-06-11T14:57:19.723Z,97138.66
2018-06-11T14:59:49.201Z,97141.19
2018-06-11T15:02:18.368Z,97140.52
2018-06-11T15:04:47.784Z,97138.38
2018-06-11T15:07:16.756Z,97139.27
2018-06-11T15:09:46.280Z,97137.38
2018-06-11T15:12:15.319Z,97138.50
2018-06-11T15:14:44.717Z,97133.14
2018-06-11T15:17:13.608Z,97126.45
2018-06-11T15:19:42.622Z,97122.09
2018-06-11T15:22:11.517Z,97119.67
2018-06-11T15:24:41.375Z,97113.09
2018-06-11T15:27:10.668Z,97104.29
2018-06-11T15:29:39.611Z,97097.45
2018-06-11T15:32:08.897Z,97079.86
2018-06-11T15:34:37.810Z,97074.17
2018-06-11T15:37:06.646Z,97083.46
2018-06-11T15:39:35.612Z,97094.52
2018-06-11T15:42:04.907Z,97092.53
2018-06-11T15:44:34.324Z,97085.30
2018-06-11T15:47:03.463Z,97077.76
2018-06-11T15:49:32.617Z,97075.52
2018-06-11T15:52:02.041Z,97082.31
2018-06-11T15:54:31.118Z,97109.77
2018-06-11T15:57:00.353Z,97128.61
2018-06-11T15:59:29.203Z,97144.10
2018-06-11T16:01:58.792Z,97161.78
2018-06-11T16:04:28.026Z,97163.29
2018-06-11T16:06:57.406Z,97159.48
2018-06-11T16:09:26.452Z,97148.06
2018-06-11T16:11:55.389Z,97150.14
2018-06-11T16:14:24.290Z,97149.29
2018-06-11T16:16:53.107Z,97163.61
2018-06-11T16:19:23.520Z,97161.87
2018-06-11T16:21:52.444Z,97173.06
2018-06-11T16:24:21.561Z,97179.43
2018-06-11T16:26:51.241Z,97176.61
2018-06-11T16:29:20.158Z,97178.74
2018-06-11T16:31:50.538Z,97191.20
2018-06-11T16:34:19.308Z,97219.48
2018-06-11T16:36:47.942Z,97233.89
2018-06-11T16:39:17.008Z,97256.36
2018-06-11T16:41:46.221Z,97262.92
2018-06-11T16:44:16.601Z,97268.86
2018-06-11T16:46:45.531Z,97278.73
2018-06-11T16:49:14.272Z,97284.27
2018-06-11T16:51:43.167Z,97300.83
2018-06-11T16:54:12.130Z,97296.25
2018-06-11T16:56:41.073Z,97306.97
2018-06-11T16:59:09.821Z,97320.73
2018-06-11T17:01:39.118Z,97332.30
2018-06-11T17:04:09.110Z,97342.89
2018-06-11T17:06:38.706Z,97354.14
2018-06-11T17:09:09.770Z,97355.05
2018-06-11T17:11:39.842Z,97356.41
2018-06-11T17:14:09.229Z,97351.33
2018-06-11T17:16:38.055Z,97361.16
2018-06-11T17:19:06.869Z,97366.77
2018-06-11T17:21:35.837Z,97365.40
2018-06-11T17:24:05.038Z,97367.73
2018-06-11T17:26:34.222Z,97356.45
2018-06-11T17:29:03.153Z,97366.63
2018-06-11T17:31:31.970Z,97381.33
2018-06-11T17:34:01.111Z,97401.27
2018-06-11T17:36:30.249Z,97404.54
2018-06-11T17:38:59.436Z,97399.51
2018-06-11T17:41:28.597Z,97385.72
2018-06-11T17:43:57.932Z,97379.38
2018-06-11T17:46:26.912Z,97384.69
2018-06-11T17:48:55.883Z,97387.60
2018-06-11T17:51:25.625Z,97401.80
2018-06-11T17:53:54.803Z,97423.70
2018-06-11T17:56:23.622Z,97432.33
2018-06-11T17:58:53.284Z,97430.25
2018-06-11T18:01:22.553Z,97409.47
2018-06-11T18:03:51.580Z,97407.38
2018-06-11T18:06:20.389Z,97403.33
2018-06-11T18:08:49.352Z,97409.81
2018-06-11T18:11:18.268Z,97407.28
2018-06-11T18:13:47.356Z,97405.17
2018-06-11T18:16:16.403Z,97401.84
2018-06-11T18:18:45.358Z,97396.30
2018-06-11T18:21:15.087Z,97396.83
2018-06-11T18:23:44.436Z,97392.13
2018-06-11T18:26:13.273Z,97385.00
2018-06-11T18:28:42.282Z,97391.81
2018-06-11T18:31:11.167Z,97398.24
2018-06-11T18:33:40.316Z,97398.55
2018-06-11T18:36:09.457Z,97400.09
2018-06-11T18:38:40.091Z,97400.17
2018-06-11T18:41:09.036Z,97398.58
2018-06-11T18:43:37.909Z,97394.41
2018-06-11T18:46:07.122Z,97395.50
2018-06-11T18:48:36.191Z,97396.63
2018-06-11T18:51:05.262Z,97397.00
2018-06-11T18:53:34.171Z,97393.17
2018-06-11T18:56:04.227Z,97386.09
2018-06-11T18:58:33.231Z,97381.37
2018-06-11T19:01:02.109Z,97384.76
2018-06-11T19:03:31.087Z,97378.45
2018-06-11T19:06:00.173Z,97378.03
2018-06-11T19:08:29.313Z,97383.08
2018-06-11T19:10:58.117Z,97378.42
2018-06-11T19:13:27.056Z,97382.37
2018-06-11T19:15:56.068Z,97385.02
2018-06-11T19:18:25.087Z,97393.13
2018-06-11T19:20:54.529Z,97388.21
2018-06-11T19:23:23.728Z,97382.88
2018-06-11T19:25:52.817Z,97389.13
2018-06-11T19:28:21.870Z,97392.57
2018-06-11T19:30:51.387Z,97392.31
2018-06-11T19:33:20.592Z,97394.64
2018-06-11T19:35:50.959Z,97399.90
2018-06-11T19:38:19.906Z,97408.13
2018-06-11T19:40:49.286Z,97407.93
2018-06-11T19:43:18.630Z,97406.72
2018-06-11T19:45:49.704Z,97413.34
2018-06-11T19:48:22.716Z,97407.09
2018-06-11T19:50:51.733Z,97412.58
2018-06-11T19:53:20.548Z,97420.69
2018-06-11T19:55:49.755Z,97423.44
2018-06-11T19:58:19.041Z,97421.95
2018-06-11T20:00:48.154Z,97424.16
2018-06-11T20:03:17.842Z,97427.73
2018-06-11T20:05:46.739Z,97422.73
2018-06-11T20:08:15.688Z,97424.91
2018-06-11T20:10:44.768Z,97419.30
2018-06-11T20:13:14.918Z,97418.12
2018-06-11T20:15:43.836Z,97410.59
2018-06-11T20:18:13.728Z,97406.40
2018-06-11T20:20:43.620Z,97407.77
2018-06-11T20:23:12.939Z,97404.77
2018-06-11T20:25:42.090Z,97398.23
2018-06-11T20:28:11.048Z,97391.08
2018-06-11T20:30:40.202Z,97384.66
2018-06-11T20:33:10.688Z,97394.02
2018-06-11T20:35:40.373Z,97394.86
2018-06-11T20:38:09.094Z,97399.55
2018-06-11T20:40:38.508Z,97399.41
2018-06-11T20:43:07.415Z,97402.67
2018-06-11T20:45:36.255Z,97400.90
2018-06-11T20:48:05.567Z,97398.78
2018-06-11T20:50:34.639Z,97394.31
2018-06-11T20:53:03.646Z,97390.88
2018-06-11T20:55:32.769Z,97392.71
2018-06-11T20:58:02.256Z,97384.94
2018-06-11T21:00:31.195Z,97383.29
2018-06-11T21:03:00.228Z,97380.13
2018-06-11T21:05:29.675Z,97381.58
2018-06-11T21:07:59.842Z,97384.98
2018-06-11T21:10:29.175Z,97387.86
2018-06-11T21:12:58.585Z,97395.86
2018-06-11T21:15:27.473Z,97395.20
2018-06-11T21:17:56.107Z,97394.41
2018-06-11T21:20:25.098Z,97392.52
2018-06-11T21:22:54.284Z,97383.33
2018-06-11T21:25:23.439Z,97371.95
2018-06-11T21:27:52.238Z,97373.61
2018-06-11T21:30:20.897Z,97372.30
2018-06-11T21:32:49.724Z,97369.50
2018-06-11T21:35:18.582Z,97362.75
2018-06-11T21:37:47.560Z,97357.84
2018-06-11T21:40:16.910Z,97352.89
2018-06-11T21:42:46.033Z,97341.10
2018-06-11T21:45:15.573Z,97349.44
2018-06-11T21:47:44.289Z,97359.28
2018-06-11T21:50:13.772Z,97365.95
2018-06-11T21:52:42.572Z,97370.69
2018-06-11T21:55:11.249Z,97359.34
2018-06-11T21:57:40.072Z,97363.73
2018-06-11T22:00:09.284Z,97357.33
2018-06-11T22:02:39.939Z,97364.09
2018-06-11T22:05:08.735Z,97355.04
2018-06-11T22:07:37.484Z,97358.92
2018-06-11T22:10:06.590Z,97350.92
2018-06-11T22:12:35.772Z,97349.66
2018-06-11T22:15:05.023Z,97351.16
2018-06-11T22:17:34.707Z,97347.13
2018-06-11T22:20:03.378Z,97354.75
2018-06-11T22:22:32.283Z,97355.20
2018-06-11T22:25:01.847Z,97366.80
2018-06-11T22:27:31.048Z,97367.97
2018-06-11T22:30:00.444Z,97373.44
2018-06-11T22:32:29.172Z,97388.89
2018-06-11T22:34:58.778Z,97386.86
2018-06-11T22:37:28.173Z,97383.33
2018-06-11T22:39:57.092Z,97394.25
2018-06-11T22:42:25.997Z,97391.79
2018-06-11T22:44:55.490Z,97394.95
2018-06-11T22:47:24.458Z,97393.74
2018-06-11T22:49:53.942Z,97405.39
2018-06-11T22:52:23.417Z,97397.51
2018-06-11T22:54:51.987Z,97399.17
2018-06-11T22:57:20.693Z,97395.38
2018-06-11T22:59:50.225Z,97399.72
2018-06-11T23:02:19.129Z,97393.82
2018-06-11T23:04:48.458Z,97388.56
2018-06-11T23:07:17.254Z,97382.59
2018-06-11T23:09:46.772Z,97386.13
2018-06-11T23:12:16.278Z,97376.34
2018-06-11T23:14:44.949Z,97369.51
2018-06-11T23:17:14.473Z,97365.67
2018-06-11T23:19:43.146Z,97363.02
2018-06-11T23:22:11.868Z,97362.28
2018-06-11T23:24:40.817Z,97365.97
2018-06-11T23:27:10.433Z,97370.02
2018-06-11T23:29:39.212Z,97374.04
2018-06-11T23:32:08.027Z,97367.61
2018-06-11T23:34:36.731Z,97366.23
2018-06-11T23:37:06.133Z,97370.13
2018-06-11T23:39:34.772Z,97375.28
2018-06-11T23:42:03.800Z,97377.27
2018-06-11T23:44:32.647Z,97378.87
2018-06-11T23:47:01.440Z,97384.13
2018-06-11T23:49:30.420Z,97389.22
2018-06-11T23:51:59.614Z,97392.47
2018-06-11T23:54:28.513Z,97391.11
2018-06-11T23:56:57.229Z,97381.30
2018-06-11T23:59:26.312Z,97385.39
